sensor_id;sensor_type;location;lat;lon;timestamp;temperature;humidity
10875;DHT22;5490;52.200;8.786;2023-03-05T10:25:51;5.30;99.90
10875;DHT22;5490;52.200;8.786;2023-03-05T10:28:23;7.80;99.90
10875;DHT22;5490;52.200;8.786;2023-03-05T10:31:01;7.90;99.90
10875;DHT22;5490;52.200;8.786;2023-03-05T10:33:39;8.00;99.90
10875;DHT22;5490;52.200;8.786;2023-03-05T10:36:28;8.10;99.90
10875;DHT22;5490;52.200;8.786;2023-03-05T10:39:27;8.20;99.90
10875;DHT22;5490;52.200;8.786;2023-03-05T10:42:05;8.20;99.90
10875;DHT22;5490;52.200;8.786;2023-03-05T10:44:36;8.10;99.90
10875;DHT22;5490;52.200;8.786;2023-03-05T10:47:13;8.00;99.90
10875;DHT22;5490;52.200;8.786;2023-03-05T10:49:47;7.90;99.90
10875;DHT22;5490;52.200;8.786;2023-03-05T10:52:17;7.90;99.90
10875;DHT22;5490;52.200;8.786;2023-03-05T10:54:44;7.80;99.90
10875;DHT22;5490;52.200;8.786;2023-03-05T10:57:18;7.70;99.90
10875;DHT22;5490;52.200;8.786;2023-03-05T10:59:48;7.70;99.90
10875;DHT22;5490;52.200;8.786;2023-03-05T11:02:15;7.70;99.90
10875;DHT22;5490;52.200;8.786;2023-03-05T11:04:43;7.70;99.90
10875;DHT22;5490;52.200;8.786;2023-03-05T11:07:36;7.70;99.90
10875;DHT22;5490;52.200;8.786;2023-03-05T11:10:12;7.70;99.90
10875;DHT22;5490;52.200;8.786;2023-03-05T11:12:41;7.70;99.90
10875;DHT22;5490;52.200;8.786;2023-03-05T11:15:26;7.80;99.90
10875;DHT22;5490;52.200;8.786;2023-03-05T11:18:16;7.80;99.90
10875;DHT22;5490;52.200;8.786;2023-03-05T11:20:43;7.70;99.90
10875;DHT22;5490;52.200;8.786;2023-03-05T11:23:12;7.60;99.90
10875;DHT22;5490;52.200;8.786;2023-03-05T11:25:56;7.50;99.90
10875;DHT22;5490;52.200;8.786;2023-03-05T11:28:28;7.50;99.90
10875;DHT22;5490;52.200;8.786;2023-03-05T11:30:59;7.40;99.90
10875;DHT22;5490;52.200;8.786;2023-03-05T11:33:28;7.40;99.90
10875;DHT22;5490;52.200;8.786;2023-03-05T11:36:10;7.40;99.90
10875;DHT22;5490;52.200;8.786;2023-03-05T11:38:45;7.40;99.90
10875;DHT22;5490;52.200;8.786;2023-03-05T11:41:16;7.50;99.90
10875;DHT22;5490;52.200;8.786;2023-03-05T11:43:47;7.60;99.90
10875;DHT22;5490;52.200;8.786;2023-03-05T11:46:15;7.60;99.90
10875;DHT22;5490;52.200;8.786;2023-03-05T11:48:44;7.60;99.90
10875;DHT22;5490;52.200;8.786;2023-03-05T11:51:17;7.50;99.90
10875;DHT22;5490;52.200;8.786;2023-03-05T11:53:49;7.50;99.90
10875;DHT22;5490;52.200;8.786;2023-03-05T11:56:20;7.50;99.90
10875;DHT22;5490;52.200;8.786;2023-03-05T11:58:56;7.60;99.90
10875;DHT22;5490;52.200;8.786;2023-03-05T12:01:27;7.70;99.90
10875;DHT22;5490;52.200;8.786;2023-03-05T12:03:54;7.90;99.90
10875;DHT22;5490;52.200;8.786;2023-03-05T12:06:27;8.00;99.90
10875;DHT22;5490;52.200;8.786;2023-03-05T12:08:56;8.10;99.90
10875;DHT22;5490;52.200;8.786;2023-03-05T12:11:26;8.10;99.90
10875;DHT22;5490;52.200;8.786;2023-03-05T12:13:56;8.10;99.90
10875;DHT22;5490;52.200;8.786;2023-03-05T12:16:27;8.10;99.90
10875;DHT22;5490;52.200;8.786;2023-03-05T12:22:04;8.00;99.90
10875;DHT22;5490;52.200;8.786;2023-03-05T12:24:39;8.00;99.90
10875;DHT22;5490;52.200;8.786;2023-03-05T12:27:11;8.00;99.90
10875;DHT22;5490;52.200;8.786;2023-03-05T12:29:50;8.00;99.90
10875;DHT22;5490;52.200;8.786;2023-03-05T12:35:33;8.20;99.90
10875;DHT22;5490;52.200;8.786;2023-03-05T12:38:28;8.20;99.90
10875;DHT22;5490;52.200;8.786;2023-03-05T12:44:18;8.30;99.90
10875;DHT22;5490;52.200;8.786;2023-03-05T12:47:17;8.30;99.90
10875;DHT22;5490;52.200;8.786;2023-03-05T12:49:48;8.30;99.90
10875;DHT22;5490;52.200;8.786;2023-03-05T12:52:25;8.30;99.90
10875;DHT22;5490;52.200;8.786;2023-03-05T12:57:42;8.30;99.90
10875;DHT22;5490;52.200;8.786;2023-03-05T13:00:15;8.30;99.90
10875;DHT22;5490;52.200;8.786;2023-03-05T13:02:49;8.30;99.90
10875;DHT22;5490;52.200;8.786;2023-03-05T13:05:22;8.40;99.90
10875;DHT22;5490;52.200;8.786;2023-03-05T13:07:51;8.50;99.90
10875;DHT22;5490;52.200;8.786;2023-03-05T13:10:23;8.50;99.90
10875;DHT22;5490;52.200;8.786;2023-03-05T13:12:51;8.50;99.90
10875;DHT22;5490;52.200;8.786;2023-03-05T13:15:20;8.40;99.90
10875;DHT22;5490;52.200;8.786;2023-03-05T13:17:55;8.40;99.90
10875;DHT22;5490;52.200;8.786;2023-03-05T13:20:34;8.40;99.90
10875;DHT22;5490;52.200;8.786;2023-03-05T13:23:18;8.40;99.90
10875;DHT22;5490;52.200;8.786;2023-03-05T13:25:56;8.40;99.90
10875;DHT22;5490;52.200;8.786;2023-03-05T13:28:24;8.40;99.90
10875;DHT22;5490;52.200;8.786;2023-03-05T13:30:52;8.50;99.90
10875;DHT22;5490;52.200;8.786;2023-03-05T13:33:25;8.60;99.90
10875;DHT22;5490;52.200;8.786;2023-03-05T13:35:52;8.70;99.90
10875;DHT22;5490;52.200;8.786;2023-03-05T13:38:22;8.80;99.90
10875;DHT22;5490;52.200;8.786;2023-03-05T13:41:15;8.80;99.90
10875;DHT22;5490;52.200;8.786;2023-03-05T13:43:44;8.70;99.90
10875;DHT22;5490;52.200;8.786;2023-03-05T13:46:11;8.70;99.90
10875;DHT22;5490;52.200;8.786;2023-03-05T13:48:39;8.80;99.90
10875;DHT22;5490;52.200;8.786;2023-03-05T13:51:06;8.80;99.90
10875;DHT22;5490;52.200;8.786;2023-03-05T13:53:34;8.90;99.90
10875;DHT22;5490;52.200;8.786;2023-03-05T13:56:02;8.80;99.90
10875;DHT22;5490;52.200;8.786;2023-03-05T13:58:44;8.80;99.90
10875;DHT22;5490;52.200;8.786;2023-03-05T14:01:28;8.80;99.90
10875;DHT22;5490;52.200;8.786;2023-03-05T14:03:58;8.80;99.90
10875;DHT22;5490;52.200;8.786;2023-03-05T14:06:27;8.80;99.90
10875;DHT22;5490;52.200;8.786;2023-03-05T14:09:01;8.70;99.90
10875;DHT22;5490;52.200;8.786;2023-03-05T14:11:28;8.70;99.90
10875;DHT22;5490;52.200;8.786;2023-03-05T14:14:04;8.70;99.90
10875;DHT22;5490;52.200;8.786;2023-03-05T14:16:32;8.60;99.90
10875;DHT22;5490;52.200;8.786;2023-03-05T14:19:01;8.60;99.90
10875;DHT22;5490;52.200;8.786;2023-03-05T14:21:42;8.60;99.90
10875;DHT22;5490;52.200;8.786;2023-03-05T14:24:11;8.60;99.90
10875;DHT22;5490;52.200;8.786;2023-03-05T14:26:40;8.60;99.90
10875;DHT22;5490;52.200;8.786;2023-03-05T14:29:13;8.50;99.90
10875;DHT22;5490;52.200;8.786;2023-03-05T14:31:46;8.50;99.90
10875;DHT22;5490;52.200;8.786;2023-03-05T14:34:21;8.40;99.90
10875;DHT22;5490;52.200;8.786;2023-03-05T14:36:49;8.30;99.90
10875;DHT22;5490;52.200;8.786;2023-03-05T14:39:26;8.20;99.90
10875;DHT22;5490;52.200;8.786;2023-03-05T14:41:53;8.00;99.90
10875;DHT22;5490;52.200;8.786;2023-03-05T14:44:19;7.90;99.90
10875;DHT22;5490;52.200;8.786;2023-03-05T14:46:50;7.80;99.90
10875;DHT22;5490;52.200;8.786;2023-03-05T14:49:18;7.80;99.90
10875;DHT22;5490;52.200;8.786;2023-03-05T14:51:45;7.70;99.90
10875;DHT22;5490;52.200;8.786;2023-03-05T14:54:18;7.70;99.90
10875;DHT22;5490;52.200;8.786;2023-03-05T14:56:45;7.50;99.90
10875;DHT22;5490;52.200;8.786;2023-03-05T14:59:12;7.50;99.90
10875;DHT22;5490;52.200;8.786;2023-03-05T15:01:39;7.50;99.90
10875;DHT22;5490;52.200;8.786;2023-03-05T15:04:05;7.50;99.90
10875;DHT22;5490;52.200;8.786;2023-03-05T15:06:35;7.40;99.90
10875;DHT22;5490;52.200;8.786;2023-03-05T15:09:04;7.40;99.90
10875;DHT22;5490;52.200;8.786;2023-03-05T15:11:33;7.40;99.90
10875;DHT22;5490;52.200;8.786;2023-03-05T15:14:00;7.40;99.90
10875;DHT22;5490;52.200;8.786;2023-03-05T15:16:26;7.40;99.90
10875;DHT22;5490;52.200;8.786;2023-03-05T15:18:53;7.40;99.90
10875;DHT22;5490;52.200;8.786;2023-03-05T15:21:20;7.40;99.90
10875;DHT22;5490;52.200;8.786;2023-03-05T15:23:48;7.50;99.90
10875;DHT22;5490;52.200;8.786;2023-03-05T15:26:14;7.40;99.90
10875;DHT22;5490;52.200;8.786;2023-03-05T15:28:42;7.40;99.90
10875;DHT22;5490;52.200;8.786;2023-03-05T15:31:09;7.40;99.90
10875;DHT22;5490;52.200;8.786;2023-03-05T15:33:36;7.30;99.90
10875;DHT22;5490;52.200;8.786;2023-03-05T15:36:03;7.30;99.90
10875;DHT22;5490;52.200;8.786;2023-03-05T15:38:29;7.30;99.90
10875;DHT22;5490;52.200;8.786;2023-03-05T15:40:57;7.30;99.90
10875;DHT22;5490;52.200;8.786;2023-03-05T15:43:25;7.20;99.90
10875;DHT22;5490;52.200;8.786;2023-03-05T15:45:51;7.30;99.90
10875;DHT22;5490;52.200;8.786;2023-03-05T15:48:18;7.30;99.90
10875;DHT22;5490;52.200;8.786;2023-03-05T15:50:45;7.40;99.90
10875;DHT22;5490;52.200;8.786;2023-03-05T15:53:13;7.30;99.90
10875;DHT22;5490;52.200;8.786;2023-03-05T15:55:43;7.30;99.90
10875;DHT22;5490;52.200;8.786;2023-03-05T15:58:14;7.30;99.90
10875;DHT22;5490;52.200;8.786;2023-03-05T16:00:41;7.30;99.90
10875;DHT22;5490;52.200;8.786;2023-03-05T16:03:08;7.30;99.90
10875;DHT22;5490;52.200;8.786;2023-03-05T16:05:36;7.30;99.90
10875;DHT22;5490;52.200;8.786;2023-03-05T16:08:04;7.30;99.90
10875;DHT22;5490;52.200;8.786;2023-03-05T18:54:10;7.20;99.90
10875;DHT22;5490;52.200;8.786;2023-03-05T18:56:36;6.70;99.90
10875;DHT22;5490;52.200;8.786;2023-03-05T18:59:04;6.60;99.90
10875;DHT22;5490;52.200;8.786;2023-03-05T19:01:33;6.60;99.90
10875;DHT22;5490;52.200;8.786;2023-03-05T19:04:02;6.50;99.90
10875;DHT22;5490;52.200;8.786;2023-03-05T19:06:30;6.50;99.90
10875;DHT22;5490;52.200;8.786;2023-03-05T19:08:57;6.40;99.90
10875;DHT22;5490;52.200;8.786;2023-03-05T19:11:26;6.40;99.90
10875;DHT22;5490;52.200;8.786;2023-03-05T19:13:53;6.30;99.90
10875;DHT22;5490;52.200;8.786;2023-03-05T19:16:23;6.30;99.90
10875;DHT22;5490;52.200;8.786;2023-03-05T19:18:51;6.30;99.90
10875;DHT22;5490;52.200;8.786;2023-03-05T19:21:28;6.30;99.90
10875;DHT22;5490;52.200;8.786;2023-03-05T19:23:55;6.30;99.90
10875;DHT22;5490;52.200;8.786;2023-03-05T19:26:22;6.20;99.90
10875;DHT22;5490;52.200;8.786;2023-03-05T19:28:50;6.20;99.90
10875;DHT22;5490;52.200;8.786;2023-03-05T19:31:17;6.20;99.90
10875;DHT22;5490;52.200;8.786;2023-03-05T19:33:44;6.20;99.90
10875;DHT22;5490;52.200;8.786;2023-03-05T19:36:12;6.10;99.90
10875;DHT22;5490;52.200;8.786;2023-03-05T19:38:42;6.10;99.90
10875;DHT22;5490;52.200;8.786;2023-03-05T19:41:09;6.20;99.90
10875;DHT22;5490;52.200;8.786;2023-03-05T19:43:37;6.10;99.90
10875;DHT22;5490;52.200;8.786;2023-03-05T19:46:06;6.10;99.90
10875;DHT22;5490;52.200;8.786;2023-03-05T19:48:35;6.10;99.90
10875;DHT22;5490;52.200;8.786;2023-03-05T19:51:08;6.10;99.90
10875;DHT22;5490;52.200;8.786;2023-03-05T19:53:36;6.00;99.90
10875;DHT22;5490;52.200;8.786;2023-03-05T19:56:08;6.00;99.90
10875;DHT22;5490;52.200;8.786;2023-03-05T19:58:36;6.00;99.90
10875;DHT22;5490;52.200;8.786;2023-03-05T20:01:11;6.00;99.90
10875;DHT22;5490;52.200;8.786;2023-03-05T20:03:43;6.00;99.90
10875;DHT22;5490;52.200;8.786;2023-03-05T20:06:10;6.00;99.90
10875;DHT22;5490;52.200;8.786;2023-03-05T20:08:39;6.00;99.90
10875;DHT22;5490;52.200;8.786;2023-03-05T20:11:08;6.00;99.90
10875;DHT22;5490;52.200;8.786;2023-03-05T20:13:35;6.00;99.90
10875;DHT22;5490;52.200;8.786;2023-03-05T20:16:05;6.00;99.90
10875;DHT22;5490;52.200;8.786;2023-03-05T20:18:39;6.00;99.90
10875;DHT22;5490;52.200;8.786;2023-03-05T20:21:07;6.00;99.90
10875;DHT22;5490;52.200;8.786;2023-03-05T20:23:33;5.90;99.90
10875;DHT22;5490;52.200;8.786;2023-03-05T20:26:05;5.90;99.90
10875;DHT22;5490;52.200;8.786;2023-03-05T20:28:32;5.90;99.90
10875;DHT22;5490;52.200;8.786;2023-03-05T20:31:00;5.90;99.90
10875;DHT22;5490;52.200;8.786;2023-03-05T20:33:28;5.80;99.90
10875;DHT22;5490;52.200;8.786;2023-03-05T20:35:57;5.80;99.90
10875;DHT22;5490;52.200;8.786;2023-03-05T20:38:26;5.80;99.90
10875;DHT22;5490;52.200;8.786;2023-03-05T20:40:57;5.80;99.90
10875;DHT22;5490;52.200;8.786;2023-03-05T20:43:27;5.80;99.90
10875;DHT22;5490;52.200;8.786;2023-03-05T20:45:57;5.80;99.90
10875;DHT22;5490;52.200;8.786;2023-03-05T20:48:25;5.80;99.90
10875;DHT22;5490;52.200;8.786;2023-03-05T20:50:53;5.80;99.90
10875;DHT22;5490;52.200;8.786;2023-03-05T20:53:22;5.80;99.90
10875;DHT22;5490;52.200;8.786;2023-03-05T20:55:49;5.80;99.90
10875;DHT22;5490;52.200;8.786;2023-03-05T20:58:16;5.80;99.90
10875;DHT22;5490;52.200;8.786;2023-03-05T21:00:42;5.80;99.90
10875;DHT22;5490;52.200;8.786;2023-03-05T21:03:09;5.80;99.90
10875;DHT22;5490;52.200;8.786;2023-03-05T21:05:36;5.80;99.90
10875;DHT22;5490;52.200;8.786;2023-03-05T21:08:03;5.80;99.90
10875;DHT22;5490;52.200;8.786;2023-03-05T21:10:32;5.90;99.90
10875;DHT22;5490;52.200;8.786;2023-03-05T21:12:59;5.80;99.90
10875;DHT22;5490;52.200;8.786;2023-03-05T21:15:28;5.80;99.90
10875;DHT22;5490;52.200;8.786;2023-03-05T21:17:56;5.80;99.90
10875;DHT22;5490;52.200;8.786;2023-03-05T21:20:25;5.80;99.90
10875;DHT22;5490;52.200;8.786;2023-03-05T21:22:53;5.80;99.90
10875;DHT22;5490;52.200;8.786;2023-03-05T21:25:20;5.80;99.90
10875;DHT22;5490;52.200;8.786;2023-03-05T21:27:52;5.80;99.90
10875;DHT22;5490;52.200;8.786;2023-03-05T21:30:20;5.80;99.90
10875;DHT22;5490;52.200;8.786;2023-03-05T21:32:47;5.80;99.90
10875;DHT22;5490;52.200;8.786;2023-03-05T21:35:16;5.80;99.90
10875;DHT22;5490;52.200;8.786;2023-03-05T21:37:43;5.80;99.90
10875;DHT22;5490;52.200;8.786;2023-03-05T21:47:36;5.70;99.90
10875;DHT22;5490;52.200;8.786;2023-03-05T21:50:03;5.70;99.90
10875;DHT22;5490;52.200;8.786;2023-03-05T21:52:31;5.70;99.90
10875;DHT22;5490;52.200;8.786;2023-03-05T21:54:58;5.70;99.90
10875;DHT22;5490;52.200;8.786;2023-03-05T21:57:25;5.70;99.90
10875;DHT22;5490;52.200;8.786;2023-03-05T21:59:52;5.70;99.90
10875;DHT22;5490;52.200;8.786;2023-03-05T22:02:19;5.70;99.90
10875;DHT22;5490;52.200;8.786;2023-03-05T22:04:48;5.70;99.90
10875;DHT22;5490;52.200;8.786;2023-03-05T22:07:16;5.70;99.90
10875;DHT22;5490;52.200;8.786;2023-03-05T22:09:43;5.70;99.90
10875;DHT22;5490;52.200;8.786;2023-03-05T22:12:10;5.70;99.90
10875;DHT22;5490;52.200;8.786;2023-03-05T22:14:43;5.70;99.90
10875;DHT22;5490;52.200;8.786;2023-03-05T22:17:10;5.70;99.90
10875;DHT22;5490;52.200;8.786;2023-03-05T22:19:37;5.70;99.90
10875;DHT22;5490;52.200;8.786;2023-03-05T22:22:05;5.70;99.90
10875;DHT22;5490;52.200;8.786;2023-03-05T22:24:31;5.70;99.90
10875;DHT22;5490;52.200;8.786;2023-03-05T22:26:58;5.70;99.90
10875;DHT22;5490;52.200;8.786;2023-03-05T22:29:26;5.70;99.90
10875;DHT22;5490;52.200;8.786;2023-03-05T22:31:53;5.70;99.90
10875;DHT22;5490;52.200;8.786;2023-03-05T22:34:20;5.60;99.90
10875;DHT22;5490;52.200;8.786;2023-03-05T22:36:46;5.60;99.90
10875;DHT22;5490;52.200;8.786;2023-03-05T22:39:14;5.60;99.90
10875;DHT22;5490;52.200;8.786;2023-03-05T22:41:41;5.60;99.90
10875;DHT22;5490;52.200;8.786;2023-03-05T22:44:08;5.60;99.90
10875;DHT22;5490;52.200;8.786;2023-03-05T22:46:35;5.60;99.90
10875;DHT22;5490;52.200;8.786;2023-03-05T22:49:01;5.60;99.90
10875;DHT22;5490;52.200;8.786;2023-03-05T22:51:28;5.60;99.90
10875;DHT22;5490;52.200;8.786;2023-03-05T22:53:55;5.60;99.90
10875;DHT22;5490;52.200;8.786;2023-03-05T22:56:23;5.70;99.90
10875;DHT22;5490;52.200;8.786;2023-03-05T22:58:50;5.60;99.90
10875;DHT22;5490;52.200;8.786;2023-03-05T23:01:18;5.60;99.90
10875;DHT22;5490;52.200;8.786;2023-03-05T23:03:45;5.60;99.90
10875;DHT22;5490;52.200;8.786;2023-03-05T23:06:17;5.50;99.90
10875;DHT22;5490;52.200;8.786;2023-03-05T23:08:44;5.50;99.90
10875;DHT22;5490;52.200;8.786;2023-03-05T23:11:11;5.50;99.90
10875;DHT22;5490;52.200;8.786;2023-03-05T23:13:40;5.50;99.90
10875;DHT22;5490;52.200;8.786;2023-03-05T23:16:07;5.50;99.90
10875;DHT22;5490;52.200;8.786;2023-03-05T23:18:34;5.50;99.90
10875;DHT22;5490;52.200;8.786;2023-03-05T23:21:00;5.50;99.90
10875;DHT22;5490;52.200;8.786;2023-03-05T23:23:27;5.50;99.90
10875;DHT22;5490;52.200;8.786;2023-03-05T23:25:54;5.50;99.90
10875;DHT22;5490;52.200;8.786;2023-03-05T23:28:20;5.40;99.90
10875;DHT22;5490;52.200;8.786;2023-03-05T23:30:48;5.40;99.90
10875;DHT22;5490;52.200;8.786;2023-03-05T23:33:17;5.40;99.90
10875;DHT22;5490;52.200;8.786;2023-03-05T23:35:50;5.40;99.90
10875;DHT22;5490;52.200;8.786;2023-03-05T23:38:16;5.40;99.90
10875;DHT22;5490;52.200;8.786;2023-03-05T23:40:45;5.40;99.90
10875;DHT22;5490;52.200;8.786;2023-03-05T23:43:13;5.30;99.90
10875;DHT22;5490;52.200;8.786;2023-03-05T23:45:40;5.40;99.90
10875;DHT22;5490;52.200;8.786;2023-03-05T23:48:08;5.40;99.90
10875;DHT22;5490;52.200;8.786;2023-03-05T23:50:38;5.30;99.90
10875;DHT22;5490;52.200;8.786;2023-03-05T23:53:06;5.30;99.90
10875;DHT22;5490;52.200;8.786;2023-03-05T23:55:35;5.30;99.90
10875;DHT22;5490;52.200;8.786;2023-03-05T23:58:02;5.30;99.90
